Time;durP1;ratioP1;P1;durP2;ratioP2;P2;SDS_P1;SDS_P2;PMS_P1;PMS_P2;Temp;Humidity;BMP_temperature;BMP_pressure;BME280_temperature;BME280_humidity;BME280_pressure;Samples;Min_cycle;Max_cycle;Signal;HPM_P1;HPM_P2
2022/07/07 00:00:07;;;;;;;1.10;1.10;;;;;;;18.35;44.76;99404.69;5075165;28;41096;-79
2022/07/07 00:02:34;;;;;;;1.13;1.13;;;;;;;18.30;45.02;99391.66;5093615;28;40154;-80
2022/07/07 00:05:02;;;;;;;1.30;1.20;;;;;;;18.31;45.07;99394.22;5093289;28;41586;-79
2022/07/07 00:07:30;;;;;;;1.60;1.50;;;;;;;18.33;45.09;99395.94;5093412;28;42640;-80
2022/07/07 00:09:58;;;;;;;1.60;1.50;;;;;;;18.34;44.91;99397.63;5075221;28;43560;-80
2022/07/07 00:12:27;;;;;;;1.33;1.23;;;;;;;18.34;45.28;99393.13;5075157;28;38843;-79
2022/07/07 00:14:55;;;;;;;2.03;1.40;;;;;;;18.36;44.92;99393.00;5075101;28;42340;-79
2022/07/07 00:17:23;;;;;;;1.50;1.40;;;;;;;18.38;45.21;99389.19;5092263;28;42548;-80
2022/07/07 00:19:51;;;;;;;2.13;1.50;;;;;;;18.30;45.17;99376.44;5091893;28;42147;-79
2022/07/07 00:22:18;;;;;;;3.00;1.30;;;;;;;18.42;45.09;99389.81;5093286;28;40187;-79
2022/07/07 00:24:46;;;;;;;1.30;1.20;;;;;;;18.42;45.51;99384.44;5074833;28;40651;-80
2022/07/07 00:27:14;;;;;;;1.50;1.40;;;;;;;18.35;45.23;99361.78;5092270;28;42717;-79
2022/07/07 00:29:44;;;;;;;1.37;1.13;;;;;;;18.46;45.11;99381.34;5074778;28;44052;-80
2022/07/07 00:32:12;;;;;;;1.30;1.20;;;;;;;18.48;44.84;99375.84;5075228;28;39702;-79
2022/07/07 00:34:40;;;;;;;2.03;1.87;;;;;;;18.49;44.69;99377.53;5074642;28;41769;-79
2022/07/07 00:37:07;;;;;;;1.30;1.20;;;;;;;18.49;44.66;99370.34;5091916;28;43123;-79
2022/07/07 00:39:35;;;;;;;1.00;1.00;;;;;;;18.50;44.75;99372.03;5091716;28;42071;-79
2022/07/07 00:42:03;;;;;;;1.37;1.27;;;;;;;18.47;44.58;99366.09;5093190;28;40147;-80
2022/07/07 00:44:31;;;;;;;1.30;1.20;;;;;;;18.55;44.61;99372.47;5091621;28;40529;-80
2022/07/07 00:47:00;;;;;;;1.90;1.20;;;;;;;18.56;44.47;99367.97;5074732;28;41753;-80
2022/07/07 00:49:28;;;;;;;1.23;1.00;;;;;;;18.46;44.38;99346.47;5091561;28;42284;-80
2022/07/07 00:51:56;;;;;;;3.27;1.10;;;;;;;18.60;44.30;99366.75;5091982;28;40510;-80
2022/07/07 00:54:24;;;;;;;1.20;1.10;;;;;;;18.60;44.20;99369.44;5091601;28;41098;-79
2022/07/07 00:56:52;;;;;;;1.70;1.20;;;;;;;18.63;44.10;99366.50;5074913;28;42876;-80
2022/07/07 00:59:20;;;;;;;1.53;1.30;;;;;;;18.63;44.48;99361.97;5091099;28;42003;-78
2022/07/07 01:01:47;;;;;;;1.40;1.30;;;;;;;18.54;44.39;99343.97;5074703;28;38420;-79
2022/07/07 01:04:17;;;;;;;1.30;1.20;;;;;;;18.65;44.43;99359.16;5125715;27;41655;-80
2022/07/07 01:06:45;;;;;;;1.20;1.10;;;;;;;18.56;44.08;99343.81;5074481;28;41374;-79
2022/07/07 01:09:12;;;;;;;1.43;1.33;;;;;;;18.65;44.48;99351.13;5091396;28;42414;-80
2022/07/07 01:11:48;;;;;;;1.20;0.83;;;;;;;18.57;44.65;99341.00;5090979;28;39174;-79
2022/07/07 01:14:17;;;;;;;1.27;1.20;;;;;;;18.64;44.57;99342.22;5074851;28;40992;-81
2022/07/07 01:16:45;;;;;;;1.13;1.00;;;;;;;18.64;44.52;99339.53;5074396;28;41781;-79
2022/07/07 01:19:13;;;;;;;1.30;1.20;;;;;;;18.67;44.22;99351.81;5074324;28;42046;-81
2022/07/07 01:21:51;;;;;;;1.10;1.10;;;;;;;18.66;44.59;99342.09;5074023;28;40848;-80
2022/07/07 01:24:22;;;;;;;1.27;1.20;;;;;;;18.65;45.05;99335.03;5088527;28;41690;-80
2022/07/07 01:26:49;;;;;;;1.30;1.20;;;;;;;18.65;44.79;99343.06;5074276;28;41790;-80
2022/07/07 01:29:17;;;;;;;1.10;1.10;;;;;;;18.65;44.48;99343.06;5092500;28;41998;-81
2022/07/07 01:31:45;;;;;;;1.20;1.10;;;;;;;18.67;44.53;99340.25;5092549;28;41149;-80
2022/07/07 01:34:13;;;;;;;1.20;1.10;;;;;;;18.49;44.22;99305.13;5074522;28;41734;-80
2022/07/07 01:36:41;;;;;;;2.27;1.00;;;;;;;18.69;44.31;99338.25;5090824;28;42748;-81
2022/07/07 01:39:09;;;;;;;1.33;0.97;;;;;;;18.66;44.04;99339.41;5091187;28;42018;-79
2022/07/07 01:41:37;;;;;;;1.00;1.00;;;;;;;18.70;44.49;99335.44;5074169;28;40312;-80
2022/07/07 01:44:05;;;;;;;1.40;1.30;;;;;;;18.35;44.49;99281.34;5091143;28;42453;-80
2022/07/07 01:46:33;;;;;;;1.30;1.00;;;;;;;18.67;44.97;99343.75;5090870;28;44105;-80
2022/07/07 01:49:01;;;;;;;1.27;1.10;;;;;;;18.57;44.55;99314.19;5091007;28;43506;-81
2022/07/07 01:51:29;;;;;;;1.03;1.00;;;;;;;18.67;44.61;99335.72;5073807;28;38868;-80
2022/07/07 01:53:56;;;;;;;1.93;1.40;;;;;;;18.53;44.94;99309.25;5090931;28;41626;-80
2022/07/07 01:56:24;;;;;;;1.20;1.10;;;;;;;18.20;45.05;99256.72;5090503;28;41658;-81
2022/07/07 01:58:53;;;;;;;1.10;1.00;;;;;;;18.50;45.18;99312.19;5090897;28;41593;-80
2022/07/07 02:01:21;;;;;;;2.97;1.20;;;;;;;18.37;45.96;99307.06;5073545;28;41285;-80
2022/07/07 02:03:49;;;;;;;1.20;1.10;;;;;;;18.34;45.79;99306.47;5090702;28;40289;-79
2022/07/07 02:06:17;;;;;;;1.50;1.40;;;;;;;18.32;46.19;99314.63;5090498;28;41345;-80
2022/07/07 02:08:44;;;;;;;1.63;1.10;;;;;;;18.34;46.05;99314.50;5073883;28;42364;-81
2022/07/07 02:11:15;;;;;;;1.23;1.13;;;;;;;18.26;46.59;99293.72;5092749;28;40128;-81
2022/07/07 02:13:44;;;;;;;1.53;1.30;;;;;;;18.40;46.05;99314.84;5094303;28;40901;-81
2022/07/07 02:16:15;;;;;;;1.10;1.10;;;;;;;18.45;46.07;99314.41;5093854;28;42038;-81
2022/07/07 02:18:44;;;;;;;1.53;1.00;;;;;;;18.43;46.23;99305.66;5095717;28;42101;-79
2022/07/07 02:21:12;;;;;;;1.40;1.30;;;;;;;18.48;46.12;99314.16;5093656;28;40672;-80
2022/07/07 02:23:43;;;;;;;1.20;1.10;;;;;;;18.49;46.36;99307.81;5094073;28;40303;-80
2022/07/07 02:26:11;;;;;;;1.10;0.97;;;;;;;18.54;46.11;99313.63;5095228;28;43491;-79
2022/07/07 02:28:40;;;;;;;1.30;1.20;;;;;;;18.55;45.76;99312.63;5077149;28;41404;-81
2022/07/07 02:31:08;;;;;;;1.40;1.00;;;;;;;18.58;45.61;99315.06;5077243;28;39131;-80
2022/07/07 02:33:37;;;;;;;0.93;0.83;;;;;;;18.60;45.61;99311.28;5094199;28;42651;-79
2022/07/07 02:36:06;;;;;;;1.07;1.00;;;;;;;18.61;45.44;99314.81;5094783;28;42859;-81
2022/07/07 02:38:35;;;;;;;0.83;0.80;;;;;;;18.62;45.50;99305.78;5076929;28;41248;-79
2022/07/07 02:41:04;;;;;;;2.47;1.10;;;;;;;18.64;45.67;99307.34;5076588;28;38873;-81
2022/07/07 02:43:32;;;;;;;2.97;1.40;;;;;;;18.63;46.38;99296.75;5093735;28;41797;-78
2022/07/07 02:46:00;;;;;;;2.07;1.30;;;;;;;18.63;46.03;99288.69;5094582;28;42589;-80
2022/07/07 02:48:28;;;;;;;1.23;0.90;;;;;;;18.57;45.78;99286.50;5076760;28;42330;-81
2022/07/07 02:50:57;;;;;;;1.97;0.97;;;;;;;18.65;45.75;99297.47;5076730;28;39060;-80
2022/07/07 02:53:24;;;;;;;2.37;1.33;;;;;;;18.69;45.54;99295.34;5076759;28;40714;-79
2022/07/07 02:55:52;;;;;;;1.17;1.07;;;;;;;18.53;45.51;99274.38;5093502;28;42700;-80
2022/07/07 02:58:22;;;;;;;2.13;1.27;;;;;;;18.72;45.38;99297.75;5093732;28;42146;-79
2022/07/07 03:00:51;;;;;;;1.30;1.20;;;;;;;18.72;45.73;99305.81;5094248;28;39673;-79
2022/07/07 03:03:19;;;;;;;1.20;1.10;;;;;;;18.71;45.52;99309.47;5093705;28;41735;-79
2022/07/07 03:05:47;;;;;;;1.30;1.20;;;;;;;18.73;45.35;99297.63;5092995;28;41916;-80
2022/07/07 03:08:16;;;;;;;0.83;0.83;;;;;;;18.64;45.37;99285.03;5093889;28;43106;-79
2022/07/07 03:10:44;;;;;;;1.57;1.03;;;;;;;18.77;45.17;99301.72;5093060;28;40872;-80
2022/07/07 03:13:11;;;;;;;1.40;1.10;;;;;;;18.78;45.55;99302.59;5091714;28;41869;-80
2022/07/07 03:15:39;;;;;;;1.10;1.00;;;;;;;18.77;45.58;99299.06;5076260;28;41604;-79
2022/07/07 03:18:07;;;;;;;0.87;0.87;;;;;;;18.79;45.31;99301.59;5094446;28;42215;-79
2022/07/07 03:20:36;;;;;;;2.13;1.00;;;;;;;18.78;45.30;99306.13;5075928;28;39052;-80
2022/07/07 03:23:04;;;;;;;1.20;1.20;;;;;;;18.79;45.37;99307.78;5092785;28;41724;-80
2022/07/07 03:25:34;;;;;;;1.10;1.00;;;;;;;18.80;45.09;99304.13;5093285;28;42890;-79
2022/07/07 03:28:01;;;;;;;1.27;1.00;;;;;;;18.80;45.16;99298.75;5076334;28;42656;-80
2022/07/07 03:30:29;;;;;;;1.07;1.07;;;;;;;18.81;45.30;99295.09;5076049;28;38925;-81
2022/07/07 03:32:57;;;;;;;1.33;1.20;;;;;;;18.80;45.27;99288.03;5093078;28;42884;-79
2022/07/07 03:35:24;;;;;;;1.20;1.10;;;;;;;18.71;45.23;99283.47;5092885;28;43085;-80
2022/07/07 03:37:52;;;;;;;2.50;1.23;;;;;;;18.53;45.32;99248.41;5093020;28;42908;-79
2022/07/07 03:40:19;;;;;;;1.20;1.10;;;;;;;18.83;45.44;99287.75;5075988;28;39990;-80
2022/07/07 03:42:49;;;;;;;2.57;1.47;;;;;;;18.84;45.16;99285.91;5094082;28;42689;-80
2022/07/07 03:45:16;;;;;;;1.40;1.30;;;;;;;18.83;45.11;99281.53;5075150;28;41778;-79
2022/07/07 03:47:44;;;;;;;3.03;1.30;;;;;;;18.84;45.14;99291.28;5075832;28;41077;-79
2022/07/07 03:50:12;;;;;;;1.30;1.10;;;;;;;18.87;45.05;99274.91;5092509;28;39953;-81
2022/07/07 03:52:40;;;;;;;1.20;1.10;;;;;;;18.91;44.95;99279.03;5094005;28;41711;-80
2022/07/07 03:55:09;;;;;;;0.90;0.90;;;;;;;18.94;44.88;99263.47;5093768;28;42879;-79
2022/07/07 03:57:38;;;;;;;1.27;1.00;;;;;;;18.99;45.05;99276.50;5092459;28;41477;-80
2022/07/07 04:00:09;;;;;;;3.13;1.43;;;;;;;19.00;45.02;99264.78;5092234;28;41052;-79
2022/07/07 04:02:36;;;;;;;1.30;1.20;;;;;;;19.00;44.91;99265.63;5075516;28;41633;-81
2022/07/07 04:05:05;;;;;;;1.00;1.00;;;;;;;19.03;44.73;99272.56;5092378;28;42852;-79
2022/07/07 04:07:33;;;;;;;1.27;1.17;;;;;;;19.04;44.95;99268.84;5092538;28;42329;-81
2022/07/07 04:10:01;;;;;;;1.30;1.20;;;;;;;19.05;44.79;99265.19;5075316;28;39039;-80
2022/07/07 04:12:29;;;;;;;1.67;1.17;;;;;;;19.06;44.96;99269.56;5093683;28;41808;-80
2022/07/07 04:14:56;;;;;;;1.60;1.30;;;;;;;19.09;44.85;99276.50;5075282;28;43447;-81
2022/07/07 04:17:25;;;;;;;0.90;0.90;;;;;;;19.10;44.57;99264.78;5093410;28;43008;-79
2022/07/07 04:19:53;;;;;;;1.57;1.10;;;;;;;19.14;44.74;99264.38;5091838;28;38546;-79
2022/07/07 04:22:21;;;;;;;1.10;1.00;;;;;;;19.20;44.75;99262.94;5075293;28;41832;-79
2022/07/07 04:24:49;;;;;;;3.93;1.30;;;;;;;19.23;44.32;99262.66;5075006;28;42018;-80
2022/07/07 04:27:17;;;;;;;1.20;1.07;;;;;;;19.22;44.46;99258.28;5074909;28;41368;-80
2022/07/07 04:29:45;;;;;;;3.03;1.10;;;;;;;19.27;44.46;99253.34;5093095;28;40062;-79
2022/07/07 04:32:13;;;;;;;1.60;1.00;;;;;;;19.27;44.32;99256.88;5075001;28;40861;-80
2022/07/07 04:34:42;;;;;;;1.00;1.00;;;;;;;19.27;44.85;99247.97;5090539;28;42036;-82
2022/07/07 04:37:09;;;;;;;1.47;1.10;;;;;;;19.21;44.45;99237.78;5093199;28;42214;-80
2022/07/07 04:39:37;;;;;;;2.77;1.10;;;;;;;19.32;44.40;99251.06;5093062;28;39898;-80
2022/07/07 04:42:06;;;;;;;1.00;0.90;;;;;;;19.33;44.15;99256.31;5091754;28;40672;-79
2022/07/07 04:44:34;;;;;;;2.77;1.00;;;;;;;19.36;44.53;99247.13;5091467;28;42049;-80
2022/07/07 04:47:01;;;;;;;0.90;0.90;;;;;;;19.29;44.22;99224.50;5091963;28;41118;-79
2022/07/07 04:49:29;;;;;;;1.43;1.13;;;;;;;19.44;44.20;99255.31;5092628;28;39912;-80
2022/07/07 04:51:58;;;;;;;1.20;1.10;;;;;;;19.42;44.09;99235.78;5092813;28;42945;-80
2022/07/07 04:54:26;;;;;;;1.00;1.00;;;;;;;19.52;43.96;99246.59;5074366;28;42711;-79
2022/07/07 04:56:54;;;;;;;2.27;1.40;;;;;;;19.44;44.59;99217.69;5091565;28;42349;-79
2022/07/07 04:59:21;;;;;;;1.10;1.00;;;;;;;19.62;44.73;99229.47;5092242;28;40870;-79
2022/07/07 05:01:49;;;;;;;1.43;1.33;;;;;;;19.68;44.50;99228.88;5074579;28;42323;-80
2022/07/07 05:04:16;;;;;;;1.20;1.10;;;;;;;19.71;44.39;99233.97;5074750;28;43095;-81
2022/07/07 05:06:44;;;;;;;2.07;1.20;;;;;;;19.64;44.44;99229.31;5091215;28;42250;-80
2022/07/07 05:09:13;;;;;;;1.53;1.40;;;;;;;19.58;44.64;99219.13;5074603;28;39188;-81
2022/07/07 05:11:40;;;;;;;1.30;1.17;;;;;;;19.60;44.89;99231.44;5073733;28;40750;-80
2022/07/07 05:14:08;;;;;;;1.63;1.47;;;;;;;19.54;44.81;99202.44;5092579;28;42856;-79
2022/07/07 05:16:36;;;;;;;1.10;1.00;;;;;;;19.71;44.89;99231.28;5091155;28;42908;-81
2022/07/07 05:19:04;;;;;;;1.63;1.23;;;;;;;19.80;44.90;99234.06;5091536;28;38945;-82
2022/07/07 05:21:31;;;;;;;1.90;1.17;;;;;;;19.79;44.64;99229.69;5090713;28;42747;-79
2022/07/07 05:23:59;;;;;;;1.40;1.30;;;;;;;19.80;44.40;99234.06;5091225;28;42826;-80
2022/07/07 05:26:28;;;;;;;1.43;1.30;;;;;;;19.84;44.63;99222.91;5090870;28;42171;-79
2022/07/07 05:28:56;;;;;;;1.27;1.27;;;;;;;19.92;44.35;99230.22;5091214;28;41068;-80
2022/07/07 05:31:24;;;;;;;1.73;1.10;;;;;;;19.99;44.43;99224.13;5092288;28;41803;-79
2022/07/07 05:33:52;;;;;;;2.50;1.10;;;;;;;20.13;44.51;99225.50;5091062;28;43217;-80
2022/07/07 05:36:19;;;;;;;1.63;1.27;;;;;;;20.16;44.17;99238.63;5074088;28;41252;-79
2022/07/07 05:38:47;;;;;;;2.20;1.10;;;;;;;20.13;44.15;99228.19;5091254;28;38965;-80
2022/07/07 05:41:15;;;;;;;1.10;1.00;;;;;;;20.01;43.93;99210.56;5073704;28;42429;-79
2022/07/07 05:43:44;;;;;;;2.73;1.30;;;;;;;20.14;43.96;99227.22;5074178;28;42912;-79
2022/07/07 05:46:12;;;;;;;1.50;1.37;;;;;;;20.02;44.08;99209.56;5093848;28;42144;-78
2022/07/07 05:48:40;;;;;;;1.53;1.40;;;;;;;20.10;43.63;99225.78;5094618;28;38554;-79
2022/07/07 05:51:08;;;;;;;1.40;1.20;;;;;;;19.85;45.86;99211.16;5077422;28;41105;-76
2022/07/07 05:53:36;;;;;;;1.60;1.27;;;;;;;19.41;47.86;99207.25;5076806;28;44705;-76
2022/07/07 05:56:04;;;;;;;1.47;1.27;;;;;;;19.09;51.07;99185.22;5093763;28;42261;-78
2022/07/07 05:58:32;;;;;;;1.80;1.50;;;;;;;18.96;50.93;99186.34;5094307;28;39054;-78
2022/07/07 06:01:02;;;;;;;1.50;1.40;;;;;;;18.93;51.24;99181.25;5094194;28;41810;-79
2022/07/07 06:03:30;;;;;;;2.03;1.50;;;;;;;18.97;50.95;99198.78;5077208;28;41997;-78
2022/07/07 06:05:58;;;;;;;1.30;1.20;;;;;;;19.01;52.06;99189.47;5076597;28;41578;-77
2022/07/07 06:08:28;;;;;;;2.53;1.30;;;;;;;19.08;51.12;99186.22;5077312;28;38757;-79
2022/07/07 06:10:56;;;;;;;3.53;1.70;;;;;;;19.08;51.44;99170.09;5076944;28;40595;-79
2022/07/07 06:13:24;;;;;;;2.80;1.50;;;;;;;19.21;51.21;99178.72;5077699;28;42127;-79
2022/07/07 06:15:51;;;;;;;1.67;1.47;;;;;;;19.24;51.07;99191.88;5093751;28;42672;-78
2022/07/07 06:18:20;;;;;;;1.60;1.40;;;;;;;19.09;52.51;99195.97;5095692;28;40979;-81
2022/07/07 06:20:48;;;;;;;1.50;1.40;;;;;;;18.77;53.52;99172.94;5093857;28;42482;-80
2022/07/07 06:23:16;;;;;;;1.97;1.37;;;;;;;18.78;54.81;99180.00;5094153;28;42887;-78
2022/07/07 06:25:45;;;;;;;2.67;1.90;;;;;;;18.66;55.84;99151.59;5095190;28;42063;-80
2022/07/07 06:28:13;;;;;;;2.17;1.50;;;;;;;18.88;55.44;99161.22;5094235;28;39706;-78
2022/07/07 06:30:41;;;;;;;1.30;1.20;;;;;;;19.02;54.13;99152.75;5076678;28;40723;-79
2022/07/07 06:33:09;;;;;;;1.57;1.47;;;;;;;19.36;54.18;99169.25;5093834;28;43360;-80
2022/07/07 06:35:37;;;;;;;3.63;1.67;;;;;;;19.61;53.69;99165.97;5077016;28;41210;-79
2022/07/07 06:38:05;;;;;;;1.63;1.53;;;;;;;19.90;53.33;99165.88;5093783;28;39014;-79
2022/07/07 06:40:33;;;;;;;3.80;1.80;;;;;;;20.08;50.83;99160.56;5093367;28;42334;-78
2022/07/07 06:43:01;;;;;;;1.37;1.27;;;;;;;20.27;49.83;99162.31;5093899;28;42395;-80
2022/07/07 06:45:30;;;;;;;2.47;2.17;;;;;;;20.64;50.10;99175.72;5093342;28;43315;-79
2022/07/07 06:47:58;;;;;;;1.77;1.63;;;;;;;20.88;48.94;99185.91;5076611;28;40917;-82
2022/07/07 06:50:26;;;;;;;2.43;1.30;;;;;;;20.86;48.50;99186.03;5093240;28;40643;-81
2022/07/07 06:52:55;;;;;;;1.57;1.47;;;;;;;20.74;48.34;99187.25;5094781;28;43806;-81
2022/07/07 06:55:23;;;;;;;1.40;1.30;;;;;;;20.50;48.05;99195.06;5093600;28;41247;-81
2022/07/07 06:57:50;;;;;;;1.67;1.20;;;;;;;20.39;48.31;99188.91;5092622;28;39997;-80
2022/07/07 07:00:18;;;;;;;2.27;1.57;;;;;;;20.42;47.73;99193.97;5093395;28;41563;-78
2022/07/07 07:02:48;;;;;;;1.90;1.67;;;;;;;20.49;47.73;99193.38;5093505;28;43711;-77
2022/07/07 07:05:17;;;;;;;2.87;1.87;;;;;;;20.47;47.39;99201.59;5076284;28;41113;-81
2022/07/07 07:07:45;;;;;;;2.27;1.40;;;;;;;20.48;47.30;99197.06;5076226;28;39456;-81
2022/07/07 07:10:14;;;;;;;2.33;1.50;;;;;;;20.57;47.19;99214.97;5076293;28;41853;-78
2022/07/07 07:12:42;;;;;;;1.30;1.20;;;;;;;20.63;47.66;99209.88;5076054;28;41953;-81
2022/07/07 07:15:11;;;;;;;2.47;1.67;;;;;;;20.62;47.07;99193.88;5076450;28;41381;-81
2022/07/07 07:17:39;;;;;;;1.40;1.30;;;;;;;20.77;47.08;99197.75;5093094;28;38603;-79
2022/07/07 07:20:08;;;;;;;1.77;1.40;;;;;;;20.99;45.82;99210.75;5075986;28;42065;-82
2022/07/07 07:22:37;;;;;;;1.50;1.40;;;;;;;21.04;45.16;99211.13;5076023;28;41756;-80
2022/07/07 07:25:05;;;;;;;2.27;1.43;;;;;;;21.19;45.00;99224.09;5093310;28;41242;-78
2022/07/07 07:27:36;;;;;;;2.13;1.30;;;;;;;21.16;45.25;99223.34;5093393;28;40136;-80
2022/07/07 07:30:04;;;;;;;1.80;1.70;;;;;;;21.11;45.49;99212.22;5092925;28;41929;-81
2022/07/07 07:32:32;;;;;;;1.40;1.30;;;;;;;20.75;45.83;99167.44;5075729;28;42779;-81
2022/07/07 07:35:00;;;;;;;2.40;1.30;;;;;;;21.06;45.92;99214.50;5075648;28;41066;-81
2022/07/07 07:37:27;;;;;;;2.37;1.53;;;;;;;21.02;46.13;99223.03;5094346;28;41848;-80
2022/07/07 07:39:55;;;;;;;1.57;1.47;;;;;;;20.98;46.07;99224.38;5093824;28;41678;-80
2022/07/07 07:42:23;;;;;;;1.37;1.27;;;;;;;20.97;46.13;99226.22;5093718;28;42780;-80
2022/07/07 07:45:11;;;;;;;2.23;1.50;;;;;;;20.96;46.19;99234.44;5075532;28;42824;-81
2022/07/07 07:47:40;;;;;;;1.53;1.40;;;;;;;21.02;46.20;99228.41;5089850;28;40032;-79
2022/07/07 07:50:08;;;;;;;1.97;1.60;;;;;;;21.08;46.53;99225.97;5075800;28;41720;-79
2022/07/07 07:52:36;;;;;;;3.33;1.80;;;;;;;21.23;46.06;99236.25;5094123;28;42719;-81
2022/07/07 07:55:05;;;;;;;1.57;1.30;;;;;;;21.37;45.78;99238.41;5094070;28;42305;-79
2022/07/07 07:57:33;;;;;;;1.60;1.50;;;;;;;21.51;46.17;99230.59;5075848;28;38701;-82
2022/07/07 08:00:02;;;;;;;2.10;1.53;;;;;;;21.66;45.69;99248.91;5092053;28;41736;-80
2022/07/07 08:02:39;;;;;;;1.83;1.60;;;;;;;21.64;45.59;99245.50;5092824;28;41739;-79
2022/07/07 08:05:07;;;;;;;1.30;1.20;;;;;;;21.58;45.96;99229.97;5092188;28;42349;-81
2022/07/07 08:07:35;;;;;;;1.50;1.40;;;;;;;21.58;46.53;99230.84;5075535;28;39037;-82
2022/07/07 08:10:04;;;;;;;2.07;1.40;;;;;;;21.39;47.75;99215.66;5092477;28;40986;-82
2022/07/07 08:12:32;;;;;;;2.00;1.37;;;;;;;21.35;48.41;99216.16;5093565;28;43666;-80
2022/07/07 08:15:01;;;;;;;1.63;1.30;;;;;;;21.39;49.54;99210.28;5093412;28;42224;-81
2022/07/07 08:17:29;;;;;;;1.53;1.43;;;;;;;21.43;49.89;99200.88;5075745;28;38853;-80
2022/07/07 08:19:57;;;;;;;4.07;1.50;;;;;;;21.62;48.66;99189.09;5092090;28;42164;-81
2022/07/07 08:22:25;;;;;;;1.43;1.30;;;;;;;22.00;48.39;99170.81;5092318;28;43008;-81
2022/07/07 08:24:53;;;;;;;2.83;1.60;;;;;;;22.82;46.97;99156.63;5091918;28;42511;-81
2022/07/07 08:27:22;;;;;;;2.53;1.77;;;;;;;25.26;42.83;99171.13;5093517;28;41064;-80
2022/07/07 08:29:50;;;;;;;4.47;1.27;;;;;;;27.00;39.25;99190.59;5092103;28;40754;-79
2022/07/07 08:32:19;;;;;;;2.27;1.33;;;;;;;27.69;38.55;99210.78;5092137;28;42703;-81
2022/07/07 08:34:47;;;;;;;1.20;1.10;;;;;;;29.34;36.29;99235.31;5108797;28;41227;-82
2022/07/07 08:37:15;;;;;;;1.30;1.20;;;;;;;30.30;34.25;99242.94;5092071;28;39255;-79
2022/07/07 08:39:43;;;;;;;1.40;1.30;;;;;;;29.97;34.47;99242.16;5093063;28;42611;-81
2022/07/07 08:42:11;;;;;;;1.50;1.40;;;;;;;29.33;35.25;99231.75;5075066;28;43056;-78
2022/07/07 08:44:39;;;;;;;1.10;1.00;;;;;;;28.86;36.45;99228.06;5091837;28;42138;-79
2022/07/07 08:47:07;;;;;;;1.40;1.27;;;;;;;28.28;37.32;99228.59;5075026;28;40137;-78
2022/07/07 08:49:36;;;;;;;1.53;1.03;;;;;;;28.65;37.41;99227.31;5074410;28;40905;-79
2022/07/07 08:52:05;;;;;;;1.73;1.30;;;;;;;29.98;35.75;99241.09;5092055;28;42725;-80
2022/07/07 08:54:34;;;;;;;1.20;1.10;;;;;;;31.36;32.80;99259.00;5091649;28;42321;-79
2022/07/07 08:57:02;;;;;;;2.20;0.90;;;;;;;30.90;33.40;99260.06;5075075;28;38751;-80
2022/07/07 08:59:29;;;;;;;1.30;1.10;;;;;;;30.27;34.65;99248.84;5092915;28;41475;-79
2022/07/07 09:01:58;;;;;;;1.20;1.10;;;;;;;29.71;34.80;99247.59;5074748;28;41682;-84
2022/07/07 09:04:27;;;;;;;1.63;1.20;;;;;;;29.45;35.11;99238.31;5074535;28;43580;-80
2022/07/07 09:06:58;;;;;;;1.67;0.90;;;;;;;29.50;34.93;99203.06;5091714;28;40063;-79
2022/07/07 09:09:37;;;;;;;2.10;1.37;;;;;;;29.85;34.23;99243.81;5074680;28;43014;-85
2022/07/07 09:12:07;;;;;;;0.80;0.80;;;;;;;29.63;34.64;99233.09;5091072;28;41936;-76
2022/07/07 09:14:40;;;;;;;0.97;0.97;;;;;;;29.45;34.80;99241.03;5073320;28;42617;-73
2022/07/07 09:17:26;;;;;;;1.23;1.10;;;;;;;29.02;35.55;99240.50;5090389;28;41006;-75
2022/07/07 09:20:03;;;;;;;1.93;1.30;;;;;;;28.59;36.51;99229.81;5072958;28;42084;-76
2022/07/07 09:22:47;;;;;;;1.60;1.10;;;;;;;28.71;36.71;99227.34;5091166;28;41830;-76
2022/07/07 09:25:17;;;;;;;1.10;1.00;;;;;;;29.23;35.55;99228.59;5091933;28;42695;-80
2022/07/07 09:27:53;;;;;;;1.10;1.00;;;;;;;29.30;35.13;99243.91;5074108;28;39087;-79
2022/07/07 09:30:33;;;;;;;1.17;1.07;;;;;;;28.82;35.96;99232.25;5074138;28;41225;-78
2022/07/07 09:33:04;;;;;;;3.30;1.20;;;;;;;28.16;38.64;99220.94;5091268;28;41334;-77
2022/07/07 09:38:22;;;;;;;2.00;1.23;;;;;;;28.66;39.00;99204.47;5091413;28;39034;-79
2022/07/07 09:40:58;;;;;;;1.13;1.10;;;;;;;28.87;37.50;99218.84;5090425;28;42746;-80
2022/07/07 09:43:25;;;;;;;1.10;1.10;;;;;;;29.16;36.95;99223.13;5087815;28;42707;-80
2022/07/07 09:46:08;;;;;;;2.07;1.10;;;;;;;29.14;36.75;99227.13;5073733;28;42323;-78
2022/07/07 09:48:37;;;;;;;1.47;1.20;;;;;;;28.91;36.85;99214.69;5092119;28;40008;-79
2022/07/07 09:51:16;;;;;;;1.67;1.10;;;;;;;28.67;37.12;99231.53;5090936;28;41663;-77
2022/07/07 09:54:14;;;;;;;1.70;0.73;;;;;;;28.30;37.22;99231.97;5074006;28;43152;-78
2022/07/07 09:56:43;;;;;;;1.30;1.20;;;;;;;27.86;37.58;99231.19;5090416;28;40963;-80
2022/07/07 09:59:12;;;;;;;1.57;1.10;;;;;;;27.53;38.30;99220.00;5091501;28;39743;-80
2022/07/07 10:01:42;;;;;;;1.10;1.00;;;;;;;27.30;38.72;99219.38;5090752;28;41755;-79
2022/07/07 10:04:13;;;;;;;1.30;1.00;;;;;;;27.23;39.29;99220.31;5124731;27;43439;-79
2022/07/07 10:06:43;;;;;;;1.20;0.90;;;;;;;26.96;39.66;99224.63;5073438;28;42373;-80
2022/07/07 10:09:18;;;;;;;1.37;1.27;;;;;;;26.34;42.49;99211.47;5090639;28;40962;-79
2022/07/07 10:11:49;;;;;;;3.57;1.53;;;;;;;25.49;45.82;99181.09;5090036;28;41686;-76
2022/07/07 10:14:21;;;;;;;1.57;1.03;;;;;;;24.90;47.99;99172.72;5073508;28;43164;-78
2022/07/07 10:16:50;;;;;;;1.40;1.07;;;;;;;24.55;49.49;99164.13;5088382;28;42164;-78
2022/07/07 10:19:20;;;;;;;1.20;1.10;;;;;;;24.29;49.95;99158.16;5073617;28;38768;-76
2022/07/07 10:21:50;;;;;;;1.50;1.10;;;;;;;24.23;50.60;99170.53;5091372;28;42206;-79
2022/07/07 10:24:20;;;;;;;1.13;1.00;;;;;;;24.22;51.02;99176.97;5091318;28;44047;-79
2022/07/07 10:26:49;;;;;;;1.20;1.10;;;;;;;24.10;51.73;99175.66;5090185;28;41433;-78
2022/07/07 10:29:18;;;;;;;1.20;1.10;;;;;;;23.93;51.73;99174.84;5073480;28;39965;-80
2022/07/07 10:31:51;;;;;;;2.93;1.53;;;;;;;23.80;51.06;99174.53;5073499;28;41725;-78
2022/07/07 10:34:19;;;;;;;1.27;1.17;;;;;;;23.67;51.25;99160.69;5077131;28;42636;-78
2022/07/07 10:37:01;;;;;;;1.20;1.10;;;;;;;23.69;51.42;99176.75;5093512;28;43236;-79
2022/07/07 10:39:34;;;;;;;1.10;1.00;;;;;;;23.59;51.45;99172.38;5076588;28;39976;-79
2022/07/07 10:42:22;;;;;;;3.73;1.40;;;;;;;23.52;51.77;99178.63;5090444;28;41740;-78
2022/07/07 10:44:52;;;;;;;1.73;1.40;;;;;;;23.45;51.69;99185.69;5093382;28;42811;-80
2022/07/07 10:47:32;;;;;;;3.27;2.10;;;;;;;23.37;51.46;99177.59;5093142;28;41434;-75
2022/07/07 10:50:01;;;;;;;4.40;1.33;;;;;;;23.30;51.69;99188.22;5125662;27;40028;-75
2022/07/07 10:52:40;;;;;;;1.93;1.30;;;;;;;23.15;52.00;99174.53;5076425;28;40895;-79
2022/07/07 10:55:10;;;;;;;1.93;1.50;;;;;;;22.98;53.33;99186.34;5092963;28;42884;-77
2022/07/07 10:57:41;;;;;;;4.20;1.33;;;;;;;22.70;53.57;99188.47;5076106;28;42173;-77
2022/07/07 11:00:16;;;;;;;2.93;1.50;;;;;;;22.26;55.39;99181.53;5092363;28;41198;-73
2022/07/07 11:02:47;;;;;;;1.77;1.67;;;;;;;22.10;56.05;99198.50;5093076;28;40594;-77
2022/07/07 11:05:36;;;;;;;1.80;1.63;;;;;;;21.81;58.12;99196.97;5092733;28;41714;-76
2022/07/07 11:08:16;;;;;;;1.80;1.70;;;;;;;21.52;58.48;99199.94;5092001;28;42439;-76
2022/07/07 11:10:58;;;;;;;1.63;1.53;;;;;;;21.34;60.76;99206.38;5092189;28;38932;-75
2022/07/07 11:13:35;;;;;;;2.70;1.67;;;;;;;21.21;61.90;99211.31;5089756;28;42811;-76
2022/07/07 11:16:22;;;;;;;1.83;1.40;;;;;;;21.03;63.33;99225.59;5092312;28;42930;-73
2022/07/07 11:18:56;;;;;;;1.90;1.70;;;;;;;20.75;64.72;99240.09;5090458;28;42312;-74
2022/07/07 11:21:34;;;;;;;3.63;1.63;;;;;;;20.53;65.99;99257.47;5092109;28;40004;-73
2022/07/07 11:24:02;;;;;;;3.47;2.47;;;;;;;20.41;67.25;99267.59;5090144;28;42281;-74
2022/07/07 11:26:34;;;;;;;2.90;1.80;;;;;;;20.24;68.43;99254.91;5092078;28;42776;-74
2022/07/07 11:29:01;;;;;;;2.23;2.03;;;;;;;20.32;69.42;99273.00;5089204;28;42198;-73
2022/07/07 11:31:30;;;;;;;3.57;2.20;;;;;;;20.34;69.39;99266.47;5091968;28;39052;-73
2022/07/07 11:33:58;;;;;;;2.80;1.80;;;;;;;20.48;69.39;99261.63;5092160;28;43275;-74
2022/07/07 11:36:29;;;;;;;2.73;1.77;;;;;;;20.63;69.66;99262.84;5074730;28;43393;-75
2022/07/07 11:38:59;;;;;;;1.60;1.50;;;;;;;20.66;68.52;99252.59;5089107;28;42338;-75
2022/07/07 11:41:43;;;;;;;2.07;1.27;;;;;;;20.85;67.82;99251.66;5091918;28;39982;-73
2022/07/07 11:44:18;;;;;;;1.63;1.33;;;;;;;20.96;67.95;99256.81;5089762;28;41835;-74
2022/07/07 11:46:48;;;;;;;1.90;1.20;;;;;;;21.12;66.87;99250.78;5091917;28;42683;-74